createdAt,value
2017-11-16T00:01:03.427Z,91.40
2017-11-16T00:03:30.920Z,91.10
2017-11-16T00:05:58.411Z,91.10
2017-11-16T00:08:25.927Z,91.00
2017-11-16T00:10:54.188Z,91.20
2017-11-16T00:13:21.707Z,91.20
2017-11-16T00:15:52.243Z,91.60
2017-11-16T00:18:19.760Z,91.40
2017-11-16T00:20:47.251Z,91.40
2017-11-16T00:23:14.763Z,91.40
2017-11-16T00:25:43.025Z,91.10
2017-11-16T00:28:10.517Z,91.10
2017-11-16T00:30:38.037Z,91.00
2017-11-16T00:33:05.527Z,90.90
2017-11-16T00:35:33.051Z,91.00
2017-11-16T00:38:00.548Z,90.70
2017-11-16T00:40:28.069Z,90.70
2017-11-16T00:42:55.574Z,90.60
2017-11-16T00:45:23.067Z,90.50
2017-11-16T00:47:50.594Z,90.20
2017-11-16T00:50:18.143Z,90.30
2017-11-16T00:52:45.655Z,90.30
2017-11-16T00:55:13.146Z,90.50
2017-11-16T00:57:41.431Z,90.20
2017-11-16T01:00:08.965Z,90.20
2017-11-16T01:02:36.468Z,90.20
2017-11-16T01:05:03.983Z,90.70
2017-11-16T01:07:31.480Z,90.30
2017-11-16T01:09:59.002Z,90.30
2017-11-16T01:12:27.260Z,90.40
2017-11-16T01:14:54.774Z,90.30
2017-11-16T01:17:22.279Z,90.20
2017-11-16T01:19:49.770Z,90.30
2017-11-16T01:22:17.287Z,90.30
2017-11-16T01:24:44.781Z,90.40
2017-11-16T01:27:12.299Z,90.20
2017-11-16T01:29:39.790Z,90.30
2017-11-16T01:32:08.049Z,90.30
2017-11-16T01:34:35.559Z,90.30
2017-11-16T01:37:03.076Z,90.30
2017-11-16T01:39:31.372Z,90.80
2017-11-16T01:41:59.646Z,90.40
2017-11-16T01:44:27.923Z,90.40
2017-11-16T01:46:56.193Z,90.40
2017-11-16T01:49:24.451Z,90.40
2017-11-16T01:51:52.043Z,90.40
2017-11-16T01:54:19.554Z,90.60
2017-11-16T01:56:47.075Z,90.60
2017-11-16T01:59:14.630Z,90.60
2017-11-16T02:01:42.126Z,90.50
2017-11-16T02:04:09.639Z,90.60
2017-11-16T02:06:37.135Z,90.70
2017-11-16T02:09:04.652Z,90.70
2017-11-16T02:11:32.138Z,90.70
2017-11-16T02:13:59.652Z,90.70
2017-11-16T02:16:27.923Z,90.80
2017-11-16T02:18:56.183Z,90.80
2017-11-16T02:21:23.710Z,90.80
2017-11-16T02:23:51.203Z,90.70
2017-11-16T02:26:18.719Z,90.80
2017-11-16T02:28:46.215Z,90.80
2017-11-16T02:31:13.767Z,90.80
2017-11-16T02:33:41.288Z,90.80
2017-11-16T02:36:08.780Z,90.90
2017-11-16T02:38:36.297Z,90.90
2017-11-16T02:41:03.791Z,90.90
2017-11-16T02:43:31.307Z,90.90
2017-11-16T02:45:58.835Z,90.80
2017-11-16T02:48:26.360Z,90.70
2017-11-16T02:50:53.851Z,91.10
2017-11-16T02:53:21.336Z,90.80
2017-11-16T02:55:48.855Z,90.80
2017-11-16T02:58:16.359Z,90.90
2017-11-16T03:00:43.894Z,90.90
2017-11-16T03:03:12.203Z,91.00
2017-11-16T03:05:39.698Z,91.00
2017-11-16T03:08:07.227Z,90.90
2017-11-16T03:10:34.724Z,90.90
2017-11-16T03:13:03.004Z,90.90
2017-11-16T03:15:30.499Z,90.90
2017-11-16T03:17:57.991Z,90.80
2017-11-16T03:20:25.507Z,90.80
2017-11-16T03:22:53.791Z,90.80
2017-11-16T03:25:21.296Z,90.70
2017-11-16T03:27:48.786Z,90.80
2017-11-16T03:30:17.073Z,90.70
2017-11-16T03:32:45.327Z,90.70
2017-11-16T03:35:13.618Z,90.80
2017-11-16T03:37:41.870Z,90.70
2017-11-16T03:40:09.359Z,90.70
2017-11-16T03:42:37.647Z,90.40
2017-11-16T03:45:05.139Z,90.50
2017-11-16T03:47:32.666Z,90.40
2017-11-16T03:50:00.155Z,90.50
2017-11-16T03:52:27.671Z,90.40
2017-11-16T03:54:55.927Z,90.50
2017-11-16T03:57:23.428Z,90.50
2017-11-16T03:59:50.940Z,90.80
2017-11-16T04:02:18.439Z,90.60
2017-11-16T04:04:45.951Z,90.50
2017-11-16T04:07:13.449Z,90.40
2017-11-16T04:09:40.964Z,90.50
2017-11-16T04:12:08.459Z,90.60
2017-11-16T04:14:36.731Z,90.40
2017-11-16T04:17:05.044Z,90.40
2017-11-16T04:19:32.527Z,90.40
2017-11-16T04:22:00.049Z,90.40
2017-11-16T04:24:27.538Z,90.40
2017-11-16T04:26:55.032Z,90.40
2017-11-16T04:29:23.312Z,90.40
2017-11-16T04:31:51.583Z,90.30
2017-11-16T04:34:19.862Z,90.30
2017-11-16T04:36:48.119Z,90.30
2017-11-16T04:39:15.631Z,90.30
2017-11-16T04:41:43.119Z,90.40
2017-11-16T04:44:10.614Z,90.30
2017-11-16T04:46:38.897Z,90.10
2017-11-16T04:49:07.155Z,90.30
2017-11-16T04:51:34.671Z,90.30
2017-11-16T04:54:02.167Z,90.50
2017-11-16T04:56:29.661Z,90.40
2017-11-16T04:58:57.179Z,90.40
2017-11-16T05:01:24.695Z,90.50
2017-11-16T05:03:52.194Z,90.40
2017-11-16T05:06:19.683Z,90.40
2017-11-16T05:08:47.964Z,90.30
2017-11-16T05:11:16.232Z,90.40
2017-11-16T05:13:44.519Z,90.50
2017-11-16T05:16:12.016Z,90.50
2017-11-16T05:18:39.528Z,90.50
2017-11-16T05:21:07.786Z,90.50
2017-11-16T05:23:35.303Z,90.50
2017-11-16T05:26:02.795Z,90.40
2017-11-16T05:28:30.283Z,90.30
2017-11-16T05:30:57.814Z,90.30
2017-11-16T05:33:25.303Z,90.30
2017-11-16T05:35:52.820Z,90.40
2017-11-16T05:38:20.319Z,90.40
2017-11-16T05:40:47.836Z,90.20
2017-11-16T05:43:16.091Z,89.90
2017-11-16T05:45:43.591Z,90.20
2017-11-16T05:48:11.868Z,90.30
2017-11-16T05:50:40.122Z,90.70
2017-11-16T05:53:07.636Z,90.30
2017-11-16T05:55:35.127Z,90.40
2017-11-16T05:58:02.615Z,90.50
2017-11-16T06:00:30.130Z,90.60
2017-11-16T06:02:57.623Z,90.60
2017-11-16T06:05:25.143Z,90.50
2017-11-16T06:07:52.630Z,90.50
2017-11-16T06:10:20.119Z,90.60
2017-11-16T06:12:48.402Z,90.70
2017-11-16T06:15:16.664Z,90.70
2017-11-16T06:17:44.951Z,90.60
2017-11-16T06:20:13.234Z,90.60
2017-11-16T06:22:40.756Z,90.50
2017-11-16T06:25:08.273Z,90.50
2017-11-16T06:27:35.764Z,90.40
2017-11-16T06:30:03.280Z,90.30
2017-11-16T06:32:30.780Z,90.40
2017-11-16T06:34:58.276Z,90.40
2017-11-16T06:37:26.555Z,90.60
2017-11-16T06:39:54.049Z,90.60
2017-11-16T06:42:21.563Z,90.50
2017-11-16T06:44:49.823Z,90.50
2017-11-16T06:47:17.335Z,90.40
2017-11-16T06:49:44.827Z,90.30
2017-11-16T06:52:12.326Z,89.50
2017-11-16T06:54:40.608Z,89.70
2017-11-16T06:57:08.111Z,89.70
2017-11-16T06:59:35.627Z,89.70
2017-11-16T07:02:03.126Z,89.70
2017-11-16T07:04:30.646Z,89.30
2017-11-16T07:06:58.190Z,89.60
2017-11-16T07:09:26.475Z,90.10
2017-11-16T07:11:54.004Z,90.10
2017-11-16T07:14:21.498Z,89.80
2017-11-16T07:16:49.030Z,90.00
2017-11-16T07:19:17.287Z,88.50
2017-11-16T07:21:45.596Z,87.90
2017-11-16T07:24:13.091Z,87.80
2017-11-16T07:26:40.583Z,88.00
2017-11-16T07:29:08.097Z,88.40
2017-11-16T07:31:35.594Z,88.60
2017-11-16T07:34:03.144Z,88.50
2017-11-16T07:36:30.700Z,88.50
2017-11-16T07:38:58.204Z,88.60
2017-11-16T07:41:25.723Z,88.50
2017-11-16T07:43:53.215Z,88.60
2017-11-16T07:46:21.503Z,88.10
2017-11-16T07:48:49.003Z,88.10
2017-11-16T07:51:16.515Z,88.00
2017-11-16T07:53:44.012Z,87.30
2017-11-16T07:56:11.503Z,87.30
2017-11-16T07:58:40.564Z,87.50
2017-11-16T08:01:08.060Z,87.60
2017-11-16T08:03:35.576Z,87.20
2017-11-16T08:06:03.113Z,87.20
2017-11-16T08:08:30.643Z,87.30
2017-11-16T08:10:58.223Z,87.20
2017-11-16T08:13:26.505Z,87.00
2017-11-16T08:15:54.070Z,86.90
2017-11-16T08:18:21.579Z,86.80
2017-11-16T08:20:49.114Z,86.60
2017-11-16T08:23:16.643Z,86.80
2017-11-16T08:25:44.149Z,86.80
2017-11-16T08:28:11.658Z,87.80
2017-11-16T08:30:39.163Z,86.90
2017-11-16T08:33:06.721Z,86.60
2017-11-16T08:35:34.266Z,86.60
2017-11-16T08:38:01.787Z,86.70
2017-11-16T08:40:30.107Z,87.40
2017-11-16T08:42:57.634Z,87.30
2017-11-16T08:45:25.199Z,87.30
2017-11-16T09:29:29.966Z,86.60
2017-11-16T09:31:57.510Z,86.90
2017-11-16T09:34:25.039Z,86.50
2017-11-16T09:36:52.554Z,86.70
2017-11-16T09:39:20.820Z,86.60
2017-11-16T09:41:48.332Z,86.60
2017-11-16T09:44:15.858Z,87.50
2017-11-16T09:46:43.384Z,86.60
2017-11-16T09:49:11.662Z,86.60
2017-11-16T09:51:39.151Z,86.60
2017-11-16T09:54:06.675Z,86.70
2017-11-16T09:56:34.195Z,86.50
2017-11-16T09:59:01.690Z,86.30
2017-11-16T10:01:29.223Z,86.40
2017-11-16T10:03:56.716Z,86.60
2017-11-16T10:06:24.995Z,85.90
2017-11-16T10:08:53.252Z,85.80
2017-11-16T10:11:20.776Z,85.80
2017-11-16T10:13:48.278Z,85.30
2017-11-16T10:16:15.803Z,85.30
2017-11-16T10:18:43.308Z,84.80
2017-11-16T10:21:10.808Z,84.90
2017-11-16T10:23:38.329Z,85.50
2017-11-16T10:26:05.819Z,84.20
2017-11-16T10:28:33.343Z,84.50
2017-11-16T10:31:01.645Z,84.50
2017-11-16T10:33:29.954Z,84.20
2017-11-16T10:35:57.464Z,84.10
2017-11-16T10:38:25.790Z,83.90
2017-11-16T10:40:53.333Z,83.80
2017-11-16T10:43:20.850Z,84.10
2017-11-16T10:45:48.364Z,84.20
2017-11-16T10:48:15.883Z,84.60
2017-11-16T10:50:44.197Z,85.00
2017-11-16T10:53:11.697Z,84.90
2017-11-16T10:55:39.211Z,84.80
2017-11-16T10:58:06.727Z,84.50
2017-11-16T11:00:35.013Z,84.40
2017-11-16T11:03:03.289Z,84.60
2017-11-16T11:05:30.812Z,84.60
2017-11-16T11:07:58.308Z,84.80
2017-11-16T11:10:26.590Z,84.90
2017-11-16T11:12:54.847Z,85.10
2017-11-16T11:15:23.145Z,85.30
2017-11-16T11:17:50.644Z,85.30
2017-11-16T11:20:18.160Z,84.90
2017-11-16T11:22:46.425Z,84.70
2017-11-16T11:25:14.685Z,85.40
2017-11-16T11:27:42.200Z,84.60
2017-11-16T11:30:09.702Z,84.90
2017-11-16T11:32:37.219Z,84.90
2017-11-16T11:35:04.719Z,84.90
2017-11-16T11:37:32.246Z,84.70
2017-11-16T11:39:59.745Z,84.90
2017-11-16T11:42:28.008Z,84.70
2017-11-16T11:44:55.524Z,84.70
2017-11-16T11:47:23.015Z,84.60
2017-11-16T11:49:50.532Z,84.30
2017-11-16T11:52:18.035Z,84.40
2017-11-16T11:54:45.551Z,84.70
2017-11-16T11:57:13.047Z,84.80
2017-11-16T11:59:40.560Z,84.70
2017-11-16T12:02:08.056Z,84.70
2017-11-16T12:04:35.593Z,84.30
2017-11-16T12:07:03.112Z,84.20
2017-11-16T12:09:31.373Z,83.90
2017-11-16T12:11:58.894Z,83.80
2017-11-16T12:14:26.394Z,83.40
2017-11-16T12:16:54.679Z,83.70
2017-11-16T12:19:22.939Z,83.50
2017-11-16T12:21:50.472Z,83.40
2017-11-16T12:24:18.008Z,83.40
2017-11-16T12:26:45.508Z,83.40
2017-11-16T12:29:13.024Z,83.10
2017-11-16T12:31:40.535Z,83.30
2017-11-16T12:34:08.051Z,83.20
2017-11-16T12:36:35.539Z,83.10
2017-11-16T12:39:03.057Z,83.30
2017-11-16T12:41:30.549Z,83.10
2017-11-16T12:43:58.071Z,82.80
2017-11-16T12:46:25.568Z,82.90
2017-11-16T12:48:53.111Z,83.20
2017-11-16T12:51:20.644Z,83.70
2017-11-16T12:53:48.171Z,83.30
2017-11-16T12:56:16.481Z,83.90
2017-11-16T12:58:43.979Z,83.90
2017-11-16T13:01:11.508Z,83.70
2017-11-16T13:03:39.022Z,83.70
2017-11-16T13:06:07.341Z,83.60
2017-11-16T13:08:34.860Z,83.60
2017-11-16T13:11:03.159Z,84.00
2017-11-16T13:13:30.659Z,84.00
2017-11-16T13:15:58.183Z,83.90
2017-11-16T13:18:25.679Z,84.10
2017-11-16T13:20:53.176Z,83.80
2017-11-16T13:23:21.459Z,83.60
2017-11-16T13:25:49.715Z,83.80
2017-11-16T13:28:17.232Z,83.80
2017-11-16T13:30:44.724Z,83.60
2017-11-16T13:33:12.247Z,83.60
2017-11-16T13:35:39.743Z,83.60
2017-11-16T13:38:07.263Z,83.90
2017-11-16T13:40:34.760Z,84.70
2017-11-16T13:43:02.275Z,84.10
2017-11-16T13:45:29.768Z,84.10
2017-11-16T13:47:57.285Z,84.30
2017-11-16T13:50:24.800Z,84.20
2017-11-16T13:52:52.312Z,84.50
2017-11-16T13:55:19.804Z,84.60
2017-11-16T13:57:47.300Z,84.70
2017-11-16T14:00:14.819Z,84.70
2017-11-16T14:02:42.327Z,84.90
2017-11-16T14:05:09.847Z,84.60
2017-11-16T14:07:37.344Z,84.60
2017-11-16T14:10:04.868Z,84.90
2017-11-16T14:12:33.128Z,84.60
2017-11-16T14:15:00.623Z,84.60
2017-11-16T14:17:28.168Z,85.20
2017-11-16T14:19:55.680Z,85.50
2017-11-16T14:22:23.236Z,85.70
2017-11-16T14:24:50.727Z,85.60
2017-11-16T14:27:18.239Z,85.70
2017-11-16T14:29:45.740Z,85.90
2017-11-16T14:32:13.256Z,85.90
2017-11-16T14:34:40.764Z,86.00
2017-11-16T14:37:08.308Z,85.90
2017-11-16T14:39:35.926Z,85.60
2017-11-16T14:42:03.450Z,86.00
2017-11-16T14:44:31.755Z,86.60
2017-11-16T14:46:59.287Z,86.50
2017-11-16T14:49:27.607Z,86.70
2017-11-16T14:51:55.181Z,86.70
2017-11-16T14:54:22.711Z,87.10
2017-11-16T14:56:50.223Z,87.40
2017-11-16T14:59:17.755Z,87.60
2017-11-16T15:01:45.248Z,88.20
2017-11-16T15:04:12.753Z,87.30
2017-11-16T15:06:40.284Z,87.30
2017-11-16T15:09:08.545Z,87.40
2017-11-16T15:11:36.060Z,87.40
2017-11-16T15:14:03.580Z,88.50
2017-11-16T15:16:31.134Z,87.60
2017-11-16T15:18:58.644Z,87.70
2017-11-16T15:21:26.160Z,87.80
2017-11-16T15:23:54.419Z,88.10
2017-11-16T15:26:22.703Z,88.30
2017-11-16T15:28:50.973Z,88.30
2017-11-16T15:31:19.268Z,88.20
2017-11-16T15:33:46.785Z,88.10
2017-11-16T15:36:14.280Z,88.00
2017-11-16T15:38:42.559Z,87.80
2017-11-16T15:41:10.819Z,87.90
2017-11-16T15:43:39.101Z,87.80
2017-11-16T15:46:06.615Z,87.70
2017-11-16T15:48:34.136Z,87.90
2017-11-16T15:51:01.630Z,88.40
2017-11-16T15:53:29.128Z,88.30
2017-11-16T15:55:57.427Z,88.70
2017-11-16T15:58:24.927Z,88.60
2017-11-16T16:00:52.449Z,88.20
2017-11-16T16:03:19.948Z,88.50
2017-11-16T16:05:47.470Z,88.20
2017-11-16T16:08:14.967Z,88.30
2017-11-16T16:10:42.489Z,88.20
2017-11-16T16:13:09.987Z,88.20
2017-11-16T16:15:38.995Z,88.90
2017-11-16T16:18:06.555Z,88.90
2017-11-16T16:20:34.053Z,87.90
2017-11-16T16:23:01.571Z,88.00
2017-11-16T16:25:29.071Z,88.00
2017-11-16T16:27:56.604Z,87.70
2017-11-16T16:30:24.875Z,87.10
2017-11-16T16:32:53.161Z,87.00
2017-11-16T16:35:21.423Z,87.20
2017-11-16T16:37:48.925Z,87.20
2017-11-16T16:40:16.448Z,87.90
2017-11-16T16:42:44.704Z,86.40
2017-11-16T16:45:12.224Z,86.40
2017-11-16T16:47:39.716Z,86.00
2017-11-16T16:50:08.002Z,86.40
2017-11-16T16:52:35.504Z,85.60
2017-11-16T16:55:03.025Z,85.70
2017-11-16T16:57:30.526Z,85.40
2017-11-16T16:59:58.044Z,85.60
2017-11-16T17:02:25.550Z,85.20
2017-11-16T17:04:53.047Z,85.60
2017-11-16T17:07:20.558Z,85.60
2017-11-16T17:09:48.052Z,85.40
2017-11-16T17:12:15.573Z,85.50
2017-11-16T17:14:43.070Z,85.30
2017-11-16T17:17:10.595Z,84.90
2017-11-16T17:19:38.096Z,84.90
2017-11-16T17:22:05.625Z,85.20
2017-11-16T17:24:33.140Z,85.10
2017-11-16T17:27:01.411Z,84.00
2017-11-16T17:29:29.707Z,84.10
2017-11-16T17:31:57.216Z,84.00
2017-11-16T17:34:24.748Z,83.80
2017-11-16T17:36:52.254Z,82.80
2017-11-16T17:39:20.539Z,84.20
2017-11-16T17:41:48.847Z,84.10
2017-11-16T17:44:17.311Z,84.10
2017-11-16T17:46:45.564Z,84.40
2017-11-16T17:49:13.115Z,84.40
2017-11-16T17:51:40.631Z,84.40
2017-11-16T17:54:08.153Z,83.90
2017-11-16T17:56:36.464Z,83.90
2017-11-16T17:59:03.980Z,83.80
2017-11-16T18:01:32.298Z,84.00
2017-11-16T18:03:59.791Z,83.90
2017-11-16T18:06:27.308Z,84.40
2017-11-16T18:08:54.969Z,84.20
2017-11-16T18:11:22.482Z,83.50
2017-11-16T18:13:51.595Z,83.30
2017-11-16T18:16:19.904Z,83.60
2017-11-16T18:18:47.409Z,83.60
2017-11-16T18:21:14.910Z,83.00
2017-11-16T18:23:42.429Z,82.40
2017-11-16T18:26:09.928Z,82.70
2017-11-16T18:28:37.476Z,82.90
2017-11-16T18:31:05.736Z,82.60
2017-11-16T18:33:34.025Z,83.00
2017-11-16T18:36:02.289Z,82.60
2017-11-16T18:38:30.572Z,82.10
2017-11-16T18:40:58.841Z,82.40
2017-11-16T18:43:27.115Z,82.40
2017-11-16T18:45:54.669Z,82.40
2017-11-16T18:48:22.189Z,82.70
2017-11-16T18:50:49.717Z,82.40
2017-11-16T18:53:17.241Z,82.70
2017-11-16T18:55:44.775Z,82.80
2017-11-16T18:58:12.271Z,83.10
2017-11-16T19:00:40.562Z,83.00
2017-11-16T19:03:08.817Z,83.30
2017-11-16T19:05:36.315Z,83.30
2017-11-16T19:08:03.828Z,83.50
2017-11-16T19:10:32.846Z,84.00
2017-11-16T19:13:01.143Z,84.30
2017-11-16T19:15:28.653Z,84.20
2017-11-16T19:17:56.176Z,84.30
2017-11-16T19:20:23.690Z,84.50
2017-11-16T19:22:51.982Z,85.30
2017-11-16T19:25:19.516Z,85.30
2017-11-16T19:27:47.019Z,85.40
2017-11-16T19:30:14.563Z,85.70
2017-11-16T19:32:42.070Z,85.70
2017-11-16T19:35:09.595Z,85.80
2017-11-16T19:37:37.087Z,85.90
2017-11-16T19:40:04.615Z,85.80
2017-11-16T19:42:32.110Z,86.00
2017-11-16T19:44:59.608Z,86.10
2017-11-16T19:47:27.119Z,86.10
2017-11-16T19:49:54.621Z,86.40
2017-11-16T19:52:22.136Z,86.40
2017-11-16T19:54:49.674Z,86.50
2017-11-16T19:57:17.208Z,87.10
2017-11-16T19:59:44.709Z,87.30
2017-11-16T20:02:12.231Z,87.70
2017-11-16T20:04:39.728Z,87.90
2017-11-16T20:07:07.237Z,88.20
2017-11-16T20:09:34.756Z,88.00
2017-11-16T20:12:02.280Z,88.00
2017-11-16T20:14:29.808Z,88.00
2017-11-16T20:20:00.751Z,88.90
2017-11-16T20:22:29.015Z,88.40
2017-11-16T20:24:57.307Z,88.70
2017-11-16T20:27:24.815Z,88.70
2017-11-16T20:29:52.345Z,89.10
2017-11-16T20:32:19.853Z,89.30
2017-11-16T20:34:47.355Z,89.40
2017-11-16T20:40:27.978Z,89.50
2017-11-16T20:43:01.166Z,90.00
2017-11-16T20:45:34.303Z,90.10
2017-11-16T20:48:08.219Z,90.20
2017-11-16T20:53:43.600Z,90.40
2017-11-16T20:56:11.117Z,90.30
2017-11-16T20:58:38.635Z,90.30
2017-11-16T21:01:06.127Z,90.30
2017-11-16T21:03:33.651Z,90.30
2017-11-16T21:06:01.145Z,90.30
2017-11-16T21:08:28.659Z,90.40
2017-11-16T21:10:56.175Z,90.40
2017-11-16T21:13:24.455Z,90.30
2017-11-16T21:15:52.710Z,90.50
2017-11-16T21:18:20.226Z,90.50
2017-11-16T21:20:47.715Z,90.60
2017-11-16T21:23:15.227Z,90.60
2017-11-16T21:25:42.714Z,90.80
2017-11-16T21:28:10.231Z,90.80
2017-11-16T21:30:38.495Z,91.00
2017-11-16T21:33:06.759Z,91.00
2017-11-16T21:35:34.270Z,91.00
2017-11-16T21:38:01.771Z,91.00
2017-11-16T21:40:29.296Z,90.90
2017-11-16T21:42:56.790Z,91.00
2017-11-16T21:45:24.303Z,91.00
2017-11-16T21:47:51.796Z,91.00
2017-11-16T21:50:19.307Z,91.10
2017-11-16T21:52:46.805Z,91.30
2017-11-16T21:55:14.298Z,91.30
2017-11-16T21:57:42.583Z,91.30
2017-11-16T22:00:10.859Z,91.30
2017-11-16T22:02:39.140Z,91.50
2017-11-16T22:05:07.407Z,91.50
2017-11-16T22:07:35.689Z,91.50
2017-11-16T22:10:03.955Z,91.40
2017-11-16T22:12:32.243Z,91.30
2017-11-16T22:15:00.498Z,91.50
2017-11-16T22:17:27.995Z,91.50
2017-11-16T22:19:55.507Z,91.40
2017-11-16T22:22:23.011Z,91.40
2017-11-16T22:24:50.526Z,91.40
2017-11-16T22:27:18.025Z,91.40
2017-11-16T22:29:45.549Z,91.30
2017-11-16T22:32:13.037Z,91.40
2017-11-16T22:34:40.554Z,91.30
2017-11-16T22:37:08.054Z,91.50
2017-11-16T22:39:35.632Z,91.60
2017-11-16T22:42:03.135Z,92.20
2017-11-16T22:44:30.651Z,92.40
2017-11-16T22:46:58.147Z,91.90
2017-11-16T22:49:25.667Z,91.70
2017-11-16T22:51:53.163Z,91.20
2017-11-16T22:54:20.664Z,91.20
2017-11-16T22:56:48.180Z,91.50
2017-11-16T22:59:15.684Z,91.10
2017-11-16T23:01:43.235Z,91.10
2017-11-16T23:04:11.491Z,91.40
2017-11-16T23:06:39.007Z,91.40
2017-11-16T23:09:06.506Z,91.40
2017-11-16T23:11:34.019Z,91.60
2017-11-16T23:14:01.527Z,91.50
2017-11-16T23:16:29.783Z,91.50
2017-11-16T23:18:57.293Z,91.50
2017-11-16T23:21:24.787Z,91.50
2017-11-16T23:23:52.302Z,91.60
2017-11-16T23:26:19.799Z,91.70
2017-11-16T23:28:47.338Z,91.70
2017-11-16T23:31:14.826Z,91.70
2017-11-16T23:33:42.335Z,91.60
2017-11-16T23:36:09.886Z,91.70
2017-11-16T23:38:38.171Z,91.80
2017-11-16T23:41:05.664Z,91.80
2017-11-16T23:43:33.926Z,91.70
2017-11-16T23:46:01.439Z,91.70
2017-11-16T23:48:29.695Z,92.00
2017-11-16T23:50:57.209Z,91.70
2017-11-16T23:53:24.735Z,91.80
2017-11-16T23:55:53.018Z,91.90
2017-11-16T23:58:20.547Z,91.90
